sensor_id;sensor_type;location;lat;lon;timestamp;P1;durP1;ratioP1;P2;durP2;ratioP2
32872;SDS011;19224;52.462;16.898;2023-11-21T00:00:27;27.45;;;14.45;;
32872;SDS011;19224;52.462;16.898;2023-11-21T00:02:58;28.27;;;15.18;;
32872;SDS011;19224;52.462;16.898;2023-11-21T00:05:29;28.40;;;15.25;;
32872;SDS011;19224;52.462;16.898;2023-11-21T00:08:00;28.30;;;14.85;;
32872;SDS011;19224;52.462;16.898;2023-11-21T00:10:30;31.20;;;15.10;;
32872;SDS011;19224;52.462;16.898;2023-11-21T00:13:00;27.77;;;15.28;;
32872;SDS011;19224;52.462;16.898;2023-11-21T00:15:31;28.85;;;14.93;;
32872;SDS011;19224;52.462;16.898;2023-11-21T00:18:01;32.90;;;15.23;;
32872;SDS011;19224;52.462;16.898;2023-11-21T00:20:32;33.78;;;15.70;;
32872;SDS011;19224;52.462;16.898;2023-11-21T00:23:03;31.52;;;15.83;;
32872;SDS011;19224;52.462;16.898;2023-11-21T00:25:33;32.88;;;15.93;;
32872;SDS011;19224;52.462;16.898;2023-11-21T00:28:07;33.02;;;16.27;;
32872;SDS011;19224;52.462;16.898;2023-11-21T00:30:38;32.53;;;17.00;;
32872;SDS011;19224;52.462;16.898;2023-11-21T00:33:08;31.62;;;16.10;;
32872;SDS011;19224;52.462;16.898;2023-11-21T00:35:39;30.45;;;16.80;;
32872;SDS011;19224;52.462;16.898;2023-11-21T00:38:09;31.27;;;17.25;;
32872;SDS011;19224;52.462;16.898;2023-11-21T00:40:39;31.05;;;16.27;;
32872;SDS011;19224;52.462;16.898;2023-11-21T00:43:10;30.48;;;16.02;;
32872;SDS011;19224;52.462;16.898;2023-11-21T00:45:40;36.15;;;17.17;;
32872;SDS011;19224;52.462;16.898;2023-11-21T00:48:12;38.13;;;17.02;;
32872;SDS011;19224;52.462;16.898;2023-11-21T00:50:42;36.58;;;18.70;;
32872;SDS011;19224;52.462;16.898;2023-11-21T00:53:13;35.65;;;17.85;;
32872;SDS011;19224;52.462;16.898;2023-11-21T00:55:45;34.08;;;17.17;;
32872;SDS011;19224;52.462;16.898;2023-11-21T00:58:15;35.95;;;17.73;;
32872;SDS011;19224;52.462;16.898;2023-11-21T01:00:45;34.45;;;17.80;;
32872;SDS011;19224;52.462;16.898;2023-11-21T01:03:16;38.20;;;18.57;;
32872;SDS011;19224;52.462;16.898;2023-11-21T01:05:47;39.23;;;18.50;;
32872;SDS011;19224;52.462;16.898;2023-11-21T01:08:18;37.33;;;18.52;;
32872;SDS011;19224;52.462;16.898;2023-11-21T01:10:49;38.25;;;18.70;;
32872;SDS011;19224;52.462;16.898;2023-11-21T01:13:19;36.65;;;18.65;;
32872;SDS011;19224;52.462;16.898;2023-11-21T01:15:49;39.35;;;19.15;;
32872;SDS011;19224;52.462;16.898;2023-11-21T01:18:19;39.67;;;19.57;;
32872;SDS011;19224;52.462;16.898;2023-11-21T01:20:52;42.08;;;20.10;;
32872;SDS011;19224;52.462;16.898;2023-11-21T01:23:22;39.13;;;19.42;;
32872;SDS011;19224;52.462;16.898;2023-11-21T01:25:52;42.13;;;20.23;;
32872;SDS011;19224;52.462;16.898;2023-11-21T01:28:27;40.45;;;20.20;;
32872;SDS011;19224;52.462;16.898;2023-11-21T01:30:57;38.85;;;19.92;;
32872;SDS011;19224;52.462;16.898;2023-11-21T01:33:28;36.58;;;20.15;;
32872;SDS011;19224;52.462;16.898;2023-11-21T01:35:58;36.68;;;18.80;;
32872;SDS011;19224;52.462;16.898;2023-11-21T01:38:28;38.17;;;19.60;;
32872;SDS011;19224;52.462;16.898;2023-11-21T01:40:59;37.83;;;19.75;;
32872;SDS011;19224;52.462;16.898;2023-11-21T01:43:30;40.33;;;20.02;;
32872;SDS011;19224;52.462;16.898;2023-11-21T01:46:01;39.65;;;20.57;;
32872;SDS011;19224;52.462;16.898;2023-11-21T01:48:34;44.63;;;20.97;;
32872;SDS011;19224;52.462;16.898;2023-11-21T01:51:06;41.92;;;20.72;;
32872;SDS011;19224;52.462;16.898;2023-11-21T01:53:37;39.45;;;20.32;;
32872;SDS011;19224;52.462;16.898;2023-11-21T01:56:08;40.08;;;20.25;;
32872;SDS011;19224;52.462;16.898;2023-11-21T01:58:39;40.65;;;21.33;;
32872;SDS011;19224;52.462;16.898;2023-11-21T02:01:11;41.98;;;20.75;;
32872;SDS011;19224;52.462;16.898;2023-11-21T02:03:41;43.13;;;21.50;;
32872;SDS011;19224;52.462;16.898;2023-11-21T02:06:12;42.60;;;20.85;;
32872;SDS011;19224;52.462;16.898;2023-11-21T02:08:42;42.65;;;21.25;;
32872;SDS011;19224;52.462;16.898;2023-11-21T02:11:13;42.83;;;21.70;;
32872;SDS011;19224;52.462;16.898;2023-11-21T02:13:43;41.98;;;21.52;;
32872;SDS011;19224;52.462;16.898;2023-11-21T02:16:14;43.02;;;21.90;;
32872;SDS011;19224;52.462;16.898;2023-11-21T02:18:45;39.53;;;21.62;;
32872;SDS011;19224;52.462;16.898;2023-11-21T02:21:16;40.38;;;20.92;;
32872;SDS011;19224;52.462;16.898;2023-11-21T02:23:46;42.55;;;22.13;;
32872;SDS011;19224;52.462;16.898;2023-11-21T02:26:17;40.88;;;21.07;;
32872;SDS011;19224;52.462;16.898;2023-11-21T02:28:47;41.80;;;20.55;;
32872;SDS011;19224;52.462;16.898;2023-11-21T02:31:19;43.50;;;21.50;;
32872;SDS011;19224;52.462;16.898;2023-11-21T02:33:50;44.35;;;21.77;;
32872;SDS011;19224;52.462;16.898;2023-11-21T02:36:21;43.60;;;22.62;;
32872;SDS011;19224;52.462;16.898;2023-11-21T02:38:51;43.42;;;22.15;;
32872;SDS011;19224;52.462;16.898;2023-11-21T02:41:21;42.45;;;20.95;;
32872;SDS011;19224;52.462;16.898;2023-11-21T02:43:51;41.18;;;20.80;;
32872;SDS011;19224;52.462;16.898;2023-11-21T02:46:22;38.98;;;20.95;;
32872;SDS011;19224;52.462;16.898;2023-11-21T02:48:53;43.73;;;22.00;;
32872;SDS011;19224;52.462;16.898;2023-11-21T02:51:24;42.33;;;21.97;;
32872;SDS011;19224;52.462;16.898;2023-11-21T02:53:54;45.50;;;22.62;;
32872;SDS011;19224;52.462;16.898;2023-11-21T02:56:27;45.55;;;22.07;;
32872;SDS011;19224;52.462;16.898;2023-11-21T02:58:59;42.65;;;22.40;;
32872;SDS011;19224;52.462;16.898;2023-11-21T03:01:29;40.08;;;20.50;;
32872;SDS011;19224;52.462;16.898;2023-11-21T03:04:00;42.50;;;21.87;;
32872;SDS011;19224;52.462;16.898;2023-11-21T03:06:30;43.65;;;22.32;;
32872;SDS011;19224;52.462;16.898;2023-11-21T03:09:01;41.70;;;20.90;;
32872;SDS011;19224;52.462;16.898;2023-11-21T03:11:34;45.52;;;22.05;;
32872;SDS011;19224;52.462;16.898;2023-11-21T03:14:04;44.95;;;21.50;;
32872;SDS011;19224;52.462;16.898;2023-11-21T03:16:34;44.15;;;21.85;;
32872;SDS011;19224;52.462;16.898;2023-11-21T03:19:05;43.60;;;22.77;;
32872;SDS011;19224;52.462;16.898;2023-11-21T03:21:36;42.10;;;21.40;;
32872;SDS011;19224;52.462;16.898;2023-11-21T03:24:06;39.33;;;19.75;;
32872;SDS011;19224;52.462;16.898;2023-11-21T03:26:37;33.13;;;18.70;;
32872;SDS011;19224;52.462;16.898;2023-11-21T03:29:07;35.03;;;17.55;;
32872;SDS011;19224;52.462;16.898;2023-11-21T03:31:38;32.38;;;16.60;;
32872;SDS011;19224;52.462;16.898;2023-11-21T03:34:14;31.05;;;17.05;;
32872;SDS011;19224;52.462;16.898;2023-11-21T03:36:54;29.07;;;16.23;;
32872;SDS011;19224;52.462;16.898;2023-11-21T03:39:26;27.73;;;15.10;;
32872;SDS011;19224;52.462;16.898;2023-11-21T03:41:57;28.67;;;15.25;;
32872;SDS011;19224;52.462;16.898;2023-11-21T03:44:27;26.20;;;14.00;;
32872;SDS011;19224;52.462;16.898;2023-11-21T03:46:57;24.85;;;13.72;;
32872;SDS011;19224;52.462;16.898;2023-11-21T03:49:27;28.60;;;13.93;;
32872;SDS011;19224;52.462;16.898;2023-11-21T03:51:58;24.77;;;13.28;;
32872;SDS011;19224;52.462;16.898;2023-11-21T03:54:28;28.98;;;13.50;;
32872;SDS011;19224;52.462;16.898;2023-11-21T03:56:58;25.23;;;13.00;;
32872;SDS011;19224;52.462;16.898;2023-11-21T03:59:28;26.12;;;13.53;;
32872;SDS011;19224;52.462;16.898;2023-11-21T04:01:59;23.75;;;12.98;;
32872;SDS011;19224;52.462;16.898;2023-11-21T04:04:29;29.63;;;12.88;;
32872;SDS011;19224;52.462;16.898;2023-11-21T04:06:59;22.45;;;12.23;;
32872;SDS011;19224;52.462;16.898;2023-11-21T04:09:30;19.67;;;11.03;;
32872;SDS011;19224;52.462;16.898;2023-11-21T04:12:01;22.45;;;12.07;;
32872;SDS011;19224;52.462;16.898;2023-11-21T04:14:32;23.95;;;11.88;;
32872;SDS011;19224;52.462;16.898;2023-11-21T04:17:02;24.10;;;12.07;;
32872;SDS011;19224;52.462;16.898;2023-11-21T04:19:33;21.48;;;11.30;;
32872;SDS011;19224;52.462;16.898;2023-11-21T04:22:03;16.82;;;9.53;;
32872;SDS011;19224;52.462;16.898;2023-11-21T04:24:34;16.77;;;8.88;;
32872;SDS011;19224;52.462;16.898;2023-11-21T04:27:04;15.83;;;9.63;;
32872;SDS011;19224;52.462;16.898;2023-11-21T04:29:35;14.13;;;8.05;;
32872;SDS011;19224;52.462;16.898;2023-11-21T04:32:06;14.75;;;8.23;;
32872;SDS011;19224;52.462;16.898;2023-11-21T04:34:36;19.23;;;9.35;;
32872;SDS011;19224;52.462;16.898;2023-11-21T04:37:07;14.60;;;8.60;;
32872;SDS011;19224;52.462;16.898;2023-11-21T04:39:38;11.05;;;7.58;;
32872;SDS011;19224;52.462;16.898;2023-11-21T04:42:08;10.75;;;6.72;;
32872;SDS011;19224;52.462;16.898;2023-11-21T04:44:40;13.65;;;6.70;;
32872;SDS011;19224;52.462;16.898;2023-11-21T04:47:11;10.60;;;6.10;;
32872;SDS011;19224;52.462;16.898;2023-11-21T04:49:42;8.13;;;5.25;;
32872;SDS011;19224;52.462;16.898;2023-11-21T04:52:12;8.98;;;5.97;;
32872;SDS011;19224;52.462;16.898;2023-11-21T04:54:42;11.05;;;6.05;;
32872;SDS011;19224;52.462;16.898;2023-11-21T04:57:13;8.85;;;5.22;;
32872;SDS011;19224;52.462;16.898;2023-11-21T04:59:44;11.03;;;5.45;;
32872;SDS011;19224;52.462;16.898;2023-11-21T05:02:15;6.60;;;4.80;;
32872;SDS011;19224;52.462;16.898;2023-11-21T05:04:47;6.37;;;4.12;;
32872;SDS011;19224;52.462;16.898;2023-11-21T05:07:17;6.25;;;4.60;;
32872;SDS011;19224;52.462;16.898;2023-11-21T05:09:47;7.47;;;4.47;;
32872;SDS011;19224;52.462;16.898;2023-11-21T05:12:17;9.05;;;4.60;;
32872;SDS011;19224;52.462;16.898;2023-11-21T05:14:48;6.37;;;4.05;;
32872;SDS011;19224;52.462;16.898;2023-11-21T05:17:19;6.10;;;4.15;;
32872;SDS011;19224;52.462;16.898;2023-11-21T05:19:50;6.22;;;4.05;;
32872;SDS011;19224;52.462;16.898;2023-11-21T05:22:20;5.35;;;3.75;;
32872;SDS011;19224;52.462;16.898;2023-11-21T05:24:50;6.47;;;4.05;;
32872;SDS011;19224;52.462;16.898;2023-11-21T05:27:21;5.30;;;4.10;;
32872;SDS011;19224;52.462;16.898;2023-11-21T05:29:51;5.30;;;3.95;;
32872;SDS011;19224;52.462;16.898;2023-11-21T05:32:21;6.28;;;4.33;;
32872;SDS011;19224;52.462;16.898;2023-11-21T05:34:53;6.62;;;3.67;;
32872;SDS011;19224;52.462;16.898;2023-11-21T05:37:24;5.33;;;3.98;;
32872;SDS011;19224;52.462;16.898;2023-11-21T05:39:55;5.37;;;4.00;;
32872;SDS011;19224;52.462;16.898;2023-11-21T05:42:25;5.55;;;3.92;;
32872;SDS011;19224;52.462;16.898;2023-11-21T05:44:56;4.25;;;3.62;;
32872;SDS011;19224;52.462;16.898;2023-11-21T05:47:28;5.97;;;4.37;;
32872;SDS011;19224;52.462;16.898;2023-11-21T05:49:58;7.03;;;4.55;;
32872;SDS011;19224;52.462;16.898;2023-11-21T05:52:28;5.70;;;4.03;;
32872;SDS011;19224;52.462;16.898;2023-11-21T05:55:00;5.85;;;4.03;;
32872;SDS011;19224;52.462;16.898;2023-11-21T05:57:33;5.08;;;4.20;;
32872;SDS011;19224;52.462;16.898;2023-11-21T06:00:09;4.60;;;3.87;;
32872;SDS011;19224;52.462;16.898;2023-11-21T06:02:42;4.83;;;4.20;;
32872;SDS011;19224;52.462;16.898;2023-11-21T06:05:13;5.72;;;4.65;;
32872;SDS011;19224;52.462;16.898;2023-11-21T06:07:43;7.53;;;4.62;;
32872;SDS011;19224;52.462;16.898;2023-11-21T06:10:14;8.18;;;4.80;;
32872;SDS011;19224;52.462;16.898;2023-11-21T06:12:46;9.93;;;5.12;;
32872;SDS011;19224;52.462;16.898;2023-11-21T06:15:16;7.87;;;5.30;;
32872;SDS011;19224;52.462;16.898;2023-11-21T06:17:48;6.45;;;4.95;;
32872;SDS011;19224;52.462;16.898;2023-11-21T06:20:20;7.50;;;5.10;;
32872;SDS011;19224;52.462;16.898;2023-11-21T06:22:51;8.10;;;5.92;;
32872;SDS011;19224;52.462;16.898;2023-11-21T06:25:23;7.67;;;5.58;;
32872;SDS011;19224;52.462;16.898;2023-11-21T06:27:54;6.95;;;5.30;;
32872;SDS011;19224;52.462;16.898;2023-11-21T06:30:25;6.58;;;5.55;;
32872;SDS011;19224;52.462;16.898;2023-11-21T06:32:56;7.33;;;5.05;;
32872;SDS011;19224;52.462;16.898;2023-11-21T06:35:28;9.25;;;5.83;;
32872;SDS011;19224;52.462;16.898;2023-11-21T06:38:00;8.85;;;5.92;;
32872;SDS011;19224;52.462;16.898;2023-11-21T06:40:30;9.85;;;5.60;;
32872;SDS011;19224;52.462;16.898;2023-11-21T06:43:01;9.30;;;5.85;;
32872;SDS011;19224;52.462;16.898;2023-11-21T06:45:33;8.75;;;6.62;;
32872;SDS011;19224;52.462;16.898;2023-11-21T06:48:04;9.00;;;6.35;;
32872;SDS011;19224;52.462;16.898;2023-11-21T06:50:34;10.15;;;5.95;;
32872;SDS011;19224;52.462;16.898;2023-11-21T06:53:04;9.30;;;5.83;;
32872;SDS011;19224;52.462;16.898;2023-11-21T06:55:35;8.33;;;5.53;;
32872;SDS011;19224;52.462;16.898;2023-11-21T06:58:06;10.90;;;7.37;;
32872;SDS011;19224;52.462;16.898;2023-11-21T07:00:36;7.65;;;5.40;;
32872;SDS011;19224;52.462;16.898;2023-11-21T07:03:07;7.28;;;5.75;;
32872;SDS011;19224;52.462;16.898;2023-11-21T07:05:37;6.60;;;5.08;;
32872;SDS011;19224;52.462;16.898;2023-11-21T07:08:08;7.47;;;5.40;;
32872;SDS011;19224;52.462;16.898;2023-11-21T07:10:42;7.35;;;5.42;;
32872;SDS011;19224;52.462;16.898;2023-11-21T07:13:12;6.65;;;4.97;;
32872;SDS011;19224;52.462;16.898;2023-11-21T07:15:42;6.55;;;5.60;;
32872;SDS011;19224;52.462;16.898;2023-11-21T07:18:13;6.60;;;5.42;;
32872;SDS011;19224;52.462;16.898;2023-11-21T07:20:43;8.00;;;5.60;;
32872;SDS011;19224;52.462;16.898;2023-11-21T07:23:14;6.90;;;5.00;;
32872;SDS011;19224;52.462;16.898;2023-11-21T07:25:44;6.22;;;4.92;;
32872;SDS011;19224;52.462;16.898;2023-11-21T07:28:15;7.22;;;5.22;;
32872;SDS011;19224;52.462;16.898;2023-11-21T07:30:45;7.65;;;5.30;;
32872;SDS011;19224;52.462;16.898;2023-11-21T07:33:15;7.47;;;5.22;;
32872;SDS011;19224;52.462;16.898;2023-11-21T07:35:46;8.33;;;5.15;;
32872;SDS011;19224;52.462;16.898;2023-11-21T07:38:16;8.20;;;5.53;;
32872;SDS011;19224;52.462;16.898;2023-11-21T07:40:46;7.45;;;5.50;;
32872;SDS011;19224;52.462;16.898;2023-11-21T07:43:16;7.10;;;5.20;;
32872;SDS011;19224;52.462;16.898;2023-11-21T07:45:47;8.20;;;5.60;;
32872;SDS011;19224;52.462;16.898;2023-11-21T07:48:17;8.55;;;5.33;;
32872;SDS011;19224;52.462;16.898;2023-11-21T07:50:48;7.58;;;5.45;;
32872;SDS011;19224;52.462;16.898;2023-11-21T07:53:18;8.30;;;4.78;;
32872;SDS011;19224;52.462;16.898;2023-11-21T07:55:49;7.65;;;5.00;;
32872;SDS011;19224;52.462;16.898;2023-11-21T07:58:21;7.10;;;5.12;;
32872;SDS011;19224;52.462;16.898;2023-11-21T08:00:51;8.20;;;4.55;;
32872;SDS011;19224;52.462;16.898;2023-11-21T08:03:21;5.85;;;4.28;;
32872;SDS011;19224;52.462;16.898;2023-11-21T08:05:54;6.25;;;4.42;;
32872;SDS011;19224;52.462;16.898;2023-11-21T08:08:25;5.95;;;4.33;;
32872;SDS011;19224;52.462;16.898;2023-11-21T08:10:55;6.72;;;4.85;;
32872;SDS011;19224;52.462;16.898;2023-11-21T08:13:26;7.60;;;4.67;;
32872;SDS011;19224;52.462;16.898;2023-11-21T08:16:00;7.85;;;5.10;;
32872;SDS011;19224;52.462;16.898;2023-11-21T08:18:32;7.08;;;5.10;;
32872;SDS011;19224;52.462;16.898;2023-11-21T08:21:03;6.47;;;4.72;;
32872;SDS011;19224;52.462;16.898;2023-11-21T08:23:33;6.37;;;4.22;;
32872;SDS011;19224;52.462;16.898;2023-11-21T08:26:05;6.55;;;4.42;;
32872;SDS011;19224;52.462;16.898;2023-11-21T08:28:36;7.40;;;4.60;;
32872;SDS011;19224;52.462;16.898;2023-11-21T08:31:06;7.47;;;4.97;;
32872;SDS011;19224;52.462;16.898;2023-11-21T08:33:37;8.08;;;5.40;;
32872;SDS011;19224;52.462;16.898;2023-11-21T08:36:10;6.87;;;5.03;;
32872;SDS011;19224;52.462;16.898;2023-11-21T08:38:40;8.08;;;5.37;;
32872;SDS011;19224;52.462;16.898;2023-11-21T08:41:11;7.20;;;5.35;;
32872;SDS011;19224;52.462;16.898;2023-11-21T08:43:42;9.15;;;6.35;;
32872;SDS011;19224;52.462;16.898;2023-11-21T08:46:13;10.68;;;6.40;;
32872;SDS011;19224;52.462;16.898;2023-11-21T08:48:44;9.50;;;6.53;;
32872;SDS011;19224;52.462;16.898;2023-11-21T08:51:15;9.88;;;6.90;;
32872;SDS011;19224;52.462;16.898;2023-11-21T08:53:45;10.58;;;6.95;;
32872;SDS011;19224;52.462;16.898;2023-11-21T08:56:15;10.72;;;7.15;;
32872;SDS011;19224;52.462;16.898;2023-11-21T08:58:47;12.68;;;7.72;;
32872;SDS011;19224;52.462;16.898;2023-11-21T09:01:18;12.43;;;8.00;;
32872;SDS011;19224;52.462;16.898;2023-11-21T09:03:49;10.90;;;7.72;;
32872;SDS011;19224;52.462;16.898;2023-11-21T09:06:19;11.22;;;7.58;;
32872;SDS011;19224;52.462;16.898;2023-11-21T09:08:50;11.18;;;7.97;;
32872;SDS011;19224;52.462;16.898;2023-11-21T09:11:20;11.60;;;7.70;;
32872;SDS011;19224;52.462;16.898;2023-11-21T09:13:51;12.55;;;8.28;;
32872;SDS011;19224;52.462;16.898;2023-11-21T09:16:22;18.20;;;10.85;;
32872;SDS011;19224;52.462;16.898;2023-11-21T09:18:52;14.90;;;8.93;;
32872;SDS011;19224;52.462;16.898;2023-11-21T09:21:23;16.65;;;10.10;;
32872;SDS011;19224;52.462;16.898;2023-11-21T09:23:55;14.85;;;9.08;;
32872;SDS011;19224;52.462;16.898;2023-11-21T09:26:28;18.52;;;9.20;;
32872;SDS011;19224;52.462;16.898;2023-11-21T09:28:59;14.65;;;9.60;;
32872;SDS011;19224;52.462;16.898;2023-11-21T09:31:30;19.32;;;9.10;;
32872;SDS011;19224;52.462;16.898;2023-11-21T09:34:01;13.68;;;8.85;;
32872;SDS011;19224;52.462;16.898;2023-11-21T09:36:31;14.93;;;9.00;;
32872;SDS011;19224;52.462;16.898;2023-11-21T09:39:02;13.20;;;9.15;;
32872;SDS011;19224;52.462;16.898;2023-11-21T09:41:37;15.48;;;8.90;;
32872;SDS011;19224;52.462;16.898;2023-11-21T09:44:13;16.15;;;9.58;;
32872;SDS011;19224;52.462;16.898;2023-11-21T09:46:47;16.42;;;9.83;;
32872;SDS011;19224;52.462;16.898;2023-11-21T09:49:22;14.87;;;10.00;;
32872;SDS011;19224;52.462;16.898;2023-11-21T09:51:55;16.87;;;10.08;;
32872;SDS011;19224;52.462;16.898;2023-11-21T09:54:27;14.65;;;9.35;;
32872;SDS011;19224;52.462;16.898;2023-11-21T09:56:59;14.60;;;9.20;;
32872;SDS011;19224;52.462;16.898;2023-11-21T09:59:30;16.05;;;9.78;;
32872;SDS011;19224;52.462;16.898;2023-11-21T10:02:01;18.00;;;10.23;;
32872;SDS011;19224;52.462;16.898;2023-11-21T10:04:33;14.58;;;9.55;;
32872;SDS011;19224;52.462;16.898;2023-11-21T10:07:03;15.70;;;9.68;;
32872;SDS011;19224;52.462;16.898;2023-11-21T10:09:37;15.48;;;9.75;;
32872;SDS011;19224;52.462;16.898;2023-11-21T10:12:07;16.87;;;9.88;;
32872;SDS011;19224;52.462;16.898;2023-11-21T10:14:41;16.37;;;10.45;;
32872;SDS011;19224;52.462;16.898;2023-11-21T10:17:14;19.90;;;10.85;;
32872;SDS011;19224;52.462;16.898;2023-11-21T10:19:49;15.15;;;9.70;;
32872;SDS011;19224;52.462;16.898;2023-11-21T10:22:23;17.32;;;10.50;;
32872;SDS011;19224;52.462;16.898;2023-11-21T10:24:55;17.25;;;10.28;;
32872;SDS011;19224;52.462;16.898;2023-11-21T10:27:26;15.90;;;10.55;;
32872;SDS011;19224;52.462;16.898;2023-11-21T10:29:57;16.62;;;10.40;;
32872;SDS011;19224;52.462;16.898;2023-11-21T10:32:29;17.07;;;10.28;;
32872;SDS011;19224;52.462;16.898;2023-11-21T10:35:02;19.25;;;10.30;;
32872;SDS011;19224;52.462;16.898;2023-11-21T10:37:41;15.60;;;9.35;;
32872;SDS011;19224;52.462;16.898;2023-11-21T10:40:11;16.60;;;10.00;;
32872;SDS011;19224;52.462;16.898;2023-11-21T10:42:42;17.15;;;10.38;;
32872;SDS011;19224;52.462;16.898;2023-11-21T10:45:12;19.20;;;10.63;;
32872;SDS011;19224;52.462;16.898;2023-11-21T10:47:43;15.72;;;10.35;;
32872;SDS011;19224;52.462;16.898;2023-11-21T10:50:14;16.50;;;10.23;;
32872;SDS011;19224;52.462;16.898;2023-11-21T10:52:46;16.25;;;9.65;;
32872;SDS011;19224;52.462;16.898;2023-11-21T10:55:19;15.28;;;10.25;;
32872;SDS011;19224;52.462;16.898;2023-11-21T10:57:52;15.38;;;10.00;;
32872;SDS011;19224;52.462;16.898;2023-11-21T11:00:26;17.45;;;10.60;;
32872;SDS011;19224;52.462;16.898;2023-11-21T11:02:58;17.35;;;9.95;;
32872;SDS011;19224;52.462;16.898;2023-11-21T11:05:29;16.27;;;10.00;;
32872;SDS011;19224;52.462;16.898;2023-11-21T11:08:08;16.85;;;10.60;;
32872;SDS011;19224;52.462;16.898;2023-11-21T11:10:40;16.27;;;10.68;;
32872;SDS011;19224;52.462;16.898;2023-11-21T11:13:10;19.80;;;10.85;;
32872;SDS011;19224;52.462;16.898;2023-11-21T11:15:42;21.40;;;11.30;;
32872;SDS011;19224;52.462;16.898;2023-11-21T11:18:18;18.15;;;11.05;;
32872;SDS011;19224;52.462;16.898;2023-11-21T11:20:50;21.05;;;11.50;;
32872;SDS011;19224;52.462;16.898;2023-11-21T11:23:35;19.90;;;11.97;;
32872;SDS011;19224;52.462;16.898;2023-11-21T11:26:26;20.70;;;11.85;;
32872;SDS011;19224;52.462;16.898;2023-11-21T11:29:23;20.57;;;11.12;;
32872;SDS011;19224;52.462;16.898;2023-11-21T11:32:21;20.12;;;11.83;;
32872;SDS011;19224;52.462;16.898;2023-11-21T11:34:54;18.32;;;11.60;;
32872;SDS011;19224;52.462;16.898;2023-11-21T11:37:32;19.40;;;11.28;;
32872;SDS011;19224;52.462;16.898;2023-11-21T11:40:05;19.57;;;12.10;;
32872;SDS011;19224;52.462;16.898;2023-11-21T11:42:39;22.30;;;13.08;;
32872;SDS011;19224;52.462;16.898;2023-11-21T11:45:33;23.15;;;13.18;;
32872;SDS011;19224;52.462;16.898;2023-11-21T11:48:05;25.25;;;14.85;;
32872;SDS011;19224;52.462;16.898;2023-11-21T11:50:37;23.90;;;14.58;;
32872;SDS011;19224;52.462;16.898;2023-11-21T11:53:14;22.85;;;13.48;;
32872;SDS011;19224;52.462;16.898;2023-11-21T11:55:46;21.48;;;12.35;;
32872;SDS011;19224;52.462;16.898;2023-11-21T11:58:17;22.85;;;11.35;;
32872;SDS011;19224;52.462;16.898;2023-11-21T12:00:48;24.03;;;12.30;;
32872;SDS011;19224;52.462;16.898;2023-11-21T12:03:22;21.48;;;12.28;;
32872;SDS011;19224;52.462;16.898;2023-11-21T12:05:54;20.65;;;11.70;;
32872;SDS011;19224;52.462;16.898;2023-11-21T12:08:25;23.75;;;11.90;;
32872;SDS011;19224;52.462;16.898;2023-11-21T12:11:00;21.77;;;11.97;;
32872;SDS011;19224;52.462;16.898;2023-11-21T12:13:33;23.55;;;13.00;;
32872;SDS011;19224;52.462;16.898;2023-11-21T12:16:05;20.85;;;12.90;;
32872;SDS011;19224;52.462;16.898;2023-11-21T12:18:36;22.85;;;13.08;;
32872;SDS011;19224;52.462;16.898;2023-11-21T12:21:06;23.92;;;13.68;;
32872;SDS011;19224;52.462;16.898;2023-11-21T12:23:37;23.07;;;13.22;;
32872;SDS011;19224;52.462;16.898;2023-11-21T12:26:08;25.12;;;13.13;;
32872;SDS011;19224;52.462;16.898;2023-11-21T12:28:39;23.57;;;13.32;;
32872;SDS011;19224;52.462;16.898;2023-11-21T12:31:09;23.00;;;13.15;;
32872;SDS011;19224;52.462;16.898;2023-11-21T12:33:40;21.62;;;12.55;;
32872;SDS011;19224;52.462;16.898;2023-11-21T12:36:10;21.23;;;12.50;;
32872;SDS011;19224;52.462;16.898;2023-11-21T12:38:41;21.17;;;12.07;;
32872;SDS011;19224;52.462;16.898;2023-11-21T12:41:12;22.67;;;13.18;;
32872;SDS011;19224;52.462;16.898;2023-11-21T12:43:44;22.85;;;13.18;;
32872;SDS011;19224;52.462;16.898;2023-11-21T12:46:15;22.60;;;13.35;;
32872;SDS011;19224;52.462;16.898;2023-11-21T12:48:47;21.17;;;12.82;;
32872;SDS011;19224;52.462;16.898;2023-11-21T12:51:18;22.45;;;12.07;;
32872;SDS011;19224;52.462;16.898;2023-11-21T12:53:50;25.50;;;12.55;;
32872;SDS011;19224;52.462;16.898;2023-11-21T12:56:21;21.55;;;11.97;;
32872;SDS011;19224;52.462;16.898;2023-11-21T12:58:53;24.07;;;12.70;;
32872;SDS011;19224;52.462;16.898;2023-11-21T13:01:25;23.10;;;12.40;;
32872;SDS011;19224;52.462;16.898;2023-11-21T13:03:57;25.05;;;13.48;;
32872;SDS011;19224;52.462;16.898;2023-11-21T13:06:29;23.12;;;12.33;;
32872;SDS011;19224;52.462;16.898;2023-11-21T13:09:03;20.80;;;12.15;;
32872;SDS011;19224;52.462;16.898;2023-11-21T13:11:34;22.55;;;12.47;;
32872;SDS011;19224;52.462;16.898;2023-11-21T13:14:07;23.30;;;12.47;;
32872;SDS011;19224;52.462;16.898;2023-11-21T13:16:39;21.75;;;12.53;;
32872;SDS011;19224;52.462;16.898;2023-11-21T13:19:11;21.48;;;11.68;;
32872;SDS011;19224;52.462;16.898;2023-11-21T13:21:41;21.73;;;12.15;;
32872;SDS011;19224;52.462;16.898;2023-11-21T13:24:12;20.43;;;12.23;;
32872;SDS011;19224;52.462;16.898;2023-11-21T13:26:44;21.25;;;12.40;;
32872;SDS011;19224;52.462;16.898;2023-11-21T13:29:15;22.82;;;12.43;;
32872;SDS011;19224;52.462;16.898;2023-11-21T13:31:45;24.72;;;12.30;;
32872;SDS011;19224;52.462;16.898;2023-11-21T13:34:17;24.52;;;12.70;;
32872;SDS011;19224;52.462;16.898;2023-11-21T13:36:49;22.82;;;12.40;;
32872;SDS011;19224;52.462;16.898;2023-11-21T13:39:22;21.57;;;12.03;;
32872;SDS011;19224;52.462;16.898;2023-11-21T13:41:54;23.12;;;12.47;;
32872;SDS011;19224;52.462;16.898;2023-11-21T13:44:25;23.90;;;13.15;;
32872;SDS011;19224;52.462;16.898;2023-11-21T13:46:57;23.18;;;12.88;;
32872;SDS011;19224;52.462;16.898;2023-11-21T13:49:27;21.12;;;12.00;;
32872;SDS011;19224;52.462;16.898;2023-11-21T13:51:59;20.62;;;12.30;;
32872;SDS011;19224;52.462;16.898;2023-11-21T13:54:31;21.23;;;11.30;;
32872;SDS011;19224;52.462;16.898;2023-11-21T13:57:01;21.60;;;12.33;;
32872;SDS011;19224;52.462;16.898;2023-11-21T13:59:33;23.22;;;12.00;;
32872;SDS011;19224;52.462;16.898;2023-11-21T14:02:04;22.42;;;12.05;;
32872;SDS011;19224;52.462;16.898;2023-11-21T14:04:42;22.37;;;12.00;;
32872;SDS011;19224;52.462;16.898;2023-11-21T14:07:31;23.20;;;12.47;;
32872;SDS011;19224;52.462;16.898;2023-11-21T14:10:03;22.37;;;12.03;;
32872;SDS011;19224;52.462;16.898;2023-11-21T14:12:35;25.77;;;13.43;;
32872;SDS011;19224;52.462;16.898;2023-11-21T14:15:08;23.10;;;12.43;;
32872;SDS011;19224;52.462;16.898;2023-11-21T14:17:40;22.02;;;12.60;;
32872;SDS011;19224;52.462;16.898;2023-11-21T14:20:10;22.13;;;12.07;;
32872;SDS011;19224;52.462;16.898;2023-11-21T14:22:42;21.70;;;12.00;;
32872;SDS011;19224;52.462;16.898;2023-11-21T14:25:13;23.87;;;11.90;;
32872;SDS011;19224;52.462;16.898;2023-11-21T14:27:45;18.35;;;11.45;;
32872;SDS011;19224;52.462;16.898;2023-11-21T14:30:16;20.62;;;11.93;;
32872;SDS011;19224;52.462;16.898;2023-11-21T14:32:48;20.20;;;11.53;;
32872;SDS011;19224;52.462;16.898;2023-11-21T14:35:21;20.85;;;10.93;;
32872;SDS011;19224;52.462;16.898;2023-11-21T14:37:51;16.50;;;10.40;;
32872;SDS011;19224;52.462;16.898;2023-11-21T14:40:23;19.98;;;11.50;;